createdAt,value
2022-09-11T00:00:49.688Z,16.97
2022-09-11T00:03:16.523Z,16.93
2022-09-11T00:05:44.320Z,16.91
2022-09-11T00:08:13.812Z,16.90
2022-09-11T00:10:42.859Z,16.89
2022-09-11T00:13:22.842Z,16.85
2022-09-11T00:15:51.541Z,16.90
2022-09-11T00:18:23.547Z,16.88
2022-09-11T00:20:54.906Z,16.84
2022-09-11T00:23:23.713Z,16.85
2022-09-11T00:25:50.495Z,16.85
2022-09-11T00:28:20.247Z,16.88
2022-09-11T00:30:56.881Z,16.88
2022-09-11T00:33:23.495Z,16.84
2022-09-11T00:36:01.385Z,16.81
2022-09-11T00:38:30.029Z,16.83
2022-09-11T00:40:59.202Z,16.81
2022-09-11T00:43:28.663Z,16.75
2022-09-11T00:46:03.286Z,16.69
2022-09-11T00:48:34.052Z,16.71
2022-09-11T00:51:03.895Z,16.75
2022-09-11T00:53:34.504Z,16.77
2022-09-11T00:56:03.966Z,16.78
2022-09-11T00:58:35.935Z,16.78
2022-09-11T01:01:03.594Z,16.77
2022-09-11T01:03:32.347Z,16.77
2022-09-11T01:05:59.711Z,16.81
2022-09-11T01:08:27.685Z,16.80
2022-09-11T01:11:22.056Z,16.79
2022-09-11T01:14:24.144Z,16.79
2022-09-11T01:17:15.294Z,16.83
2022-09-11T01:20:00.493Z,16.86
2022-09-11T01:22:42.263Z,16.91
2022-09-11T01:25:09.219Z,16.94
2022-09-11T01:27:47.245Z,16.95
2022-09-11T01:30:18.330Z,16.95
2022-09-11T01:33:15.497Z,16.89
2022-09-11T01:35:54.461Z,16.86
2022-09-11T01:38:46.817Z,16.82
2022-09-11T01:41:16.969Z,16.72
2022-09-11T01:43:51.895Z,16.70
2022-09-11T01:46:23.057Z,16.67
2022-09-11T01:49:00.980Z,16.65
2022-09-11T01:51:31.656Z,16.60
2022-09-11T01:54:00.605Z,16.58
2022-09-11T01:56:32.669Z,16.53
2022-09-11T01:59:02.514Z,16.45
2022-09-11T02:01:33.845Z,16.47
2022-09-11T02:04:07.177Z,16.45
2022-09-11T02:07:23.359Z,16.38
2022-09-11T02:09:56.668Z,16.37
2022-09-11T02:12:32.224Z,16.33
2022-09-11T02:14:59.568Z,16.31
2022-09-11T02:17:48.187Z,16.30
2022-09-11T02:20:15.747Z,16.31
2022-09-11T02:22:43.278Z,16.32
2022-09-11T02:25:10.776Z,16.33
2022-09-11T02:27:37.351Z,16.29
2022-09-11T02:30:04.234Z,16.29
2022-09-11T02:32:32.702Z,16.28
2022-09-11T02:35:00.339Z,16.27
2022-09-11T02:37:49.187Z,16.23
2022-09-11T02:40:37.031Z,16.21
2022-09-11T02:43:09.388Z,16.21
2022-09-11T02:46:00.539Z,16.20
2022-09-11T02:49:02.639Z,16.22
2022-09-11T02:51:48.615Z,16.24
2022-09-11T02:54:33.363Z,16.23
2022-09-11T02:57:25.504Z,16.21
2022-09-11T02:59:56.352Z,16.21
2022-09-11T03:02:24.955Z,16.20
2022-09-11T03:04:51.485Z,16.19
2022-09-11T03:07:18.054Z,16.17
2022-09-11T03:09:44.593Z,16.16
2022-09-11T03:12:11.553Z,16.17
2022-09-11T03:14:38.245Z,16.16
2022-09-11T03:17:05.427Z,16.14
2022-09-11T03:19:32.108Z,16.11
2022-09-11T03:21:58.820Z,16.09
2022-09-11T03:24:26.432Z,16.09
2022-09-11T03:26:53.076Z,16.08
2022-09-11T03:29:19.571Z,16.08
2022-09-11T03:31:47.378Z,16.06
2022-09-11T03:34:14.483Z,16.06
2022-09-11T03:36:41.138Z,16.04
2022-09-11T03:39:07.648Z,16.02
2022-09-11T03:41:34.159Z,16.04
2022-09-11T03:44:00.814Z,16.07
2022-09-11T03:46:27.926Z,16.10
2022-09-11T03:48:54.611Z,16.13
2022-09-11T03:51:21.334Z,16.14
2022-09-11T03:53:48.263Z,16.13
2022-09-11T03:56:15.064Z,16.09
2022-09-11T03:58:41.612Z,16.06
2022-09-11T04:01:12.598Z,16.02
2022-09-11T04:03:40.719Z,16.00
2022-09-11T04:06:07.977Z,15.96
2022-09-11T04:08:34.668Z,15.94
2022-09-11T04:11:03.937Z,15.95
2022-09-11T04:13:32.914Z,15.93
2022-09-11T04:16:19.171Z,15.92
2022-09-11T04:18:46.923Z,15.95
2022-09-11T04:21:15.947Z,15.97
2022-09-11T04:23:42.651Z,15.98
2022-09-11T04:26:17.897Z,15.97
2022-09-11T04:28:45.255Z,16.00
2022-09-11T04:31:13.637Z,16.04
2022-09-11T04:33:41.009Z,16.08
2022-09-11T04:36:10.130Z,16.11
2022-09-11T04:38:36.900Z,16.15
2022-09-11T04:41:04.502Z,16.18
2022-09-11T04:43:31.711Z,16.23
2022-09-11T04:46:15.268Z,16.25
2022-09-11T04:48:51.673Z,16.23
2022-09-11T04:51:23.905Z,16.21
2022-09-11T04:53:51.998Z,16.19
2022-09-11T04:56:21.258Z,16.19
2022-09-11T04:58:55.118Z,16.20
2022-09-11T05:01:23.224Z,16.32
2022-09-11T05:03:49.881Z,16.60
2022-09-11T05:06:16.587Z,16.93
2022-09-11T05:08:44.900Z,17.08
2022-09-11T05:11:13.533Z,17.12
2022-09-11T05:13:41.422Z,16.99
2022-09-11T05:16:11.173Z,16.99
2022-09-11T05:18:40.063Z,17.06
2022-09-11T05:21:16.728Z,17.01
2022-09-11T05:23:47.473Z,16.92
2022-09-11T05:26:17.114Z,17.00
2022-09-11T05:28:44.279Z,17.21
2022-09-11T05:31:13.090Z,17.61
2022-09-11T05:33:40.322Z,17.98
2022-09-11T05:36:07.288Z,18.30
2022-09-11T05:38:36.620Z,18.59
2022-09-11T05:41:06.374Z,18.74
2022-09-11T05:43:36.379Z,18.92
2022-09-11T05:46:03.345Z,19.08
2022-09-11T05:48:32.045Z,19.15
2022-09-11T05:51:03.594Z,19.24
2022-09-11T05:53:33.702Z,19.28
2022-09-11T05:56:12.472Z,19.29
2022-09-11T05:58:39.223Z,19.35
2022-09-11T06:01:14.455Z,19.28
2022-09-11T06:03:42.156Z,19.34
2022-09-11T06:06:11.383Z,19.41
2022-09-11T06:08:39.567Z,19.50
2022-09-11T06:11:07.676Z,19.45
2022-09-11T06:13:39.569Z,19.42
2022-09-11T06:16:12.636Z,19.43
2022-09-11T06:18:42.509Z,19.16
2022-09-11T06:21:12.317Z,19.08
2022-09-11T06:23:42.105Z,19.13
2022-09-11T06:26:11.393Z,19.15
2022-09-11T06:28:39.211Z,19.23
2022-09-11T06:31:08.031Z,19.40
2022-09-11T06:33:36.295Z,19.40
2022-09-11T06:36:07.883Z,19.43
2022-09-11T06:38:34.405Z,19.55
2022-09-11T06:41:05.514Z,19.63
2022-09-11T06:43:33.106Z,19.70
2022-09-11T06:46:06.810Z,19.78
2022-09-11T06:48:33.574Z,19.92
2022-09-11T06:51:07.678Z,20.06
2022-09-11T06:53:34.602Z,20.15
2022-09-11T06:56:02.452Z,20.18
2022-09-11T06:58:29.537Z,20.09
2022-09-11T07:00:56.999Z,20.04
2022-09-11T07:03:23.647Z,20.07
2022-09-11T07:05:50.259Z,20.04
2022-09-11T07:08:16.771Z,19.99
2022-09-11T07:10:43.293Z,19.84
2022-09-11T07:13:10.978Z,19.67
2022-09-11T07:15:37.578Z,19.34
2022-09-11T07:18:04.164Z,19.28
2022-09-11T07:20:31.519Z,19.21
2022-09-11T07:22:58.589Z,18.93
2022-09-11T07:25:25.734Z,18.73
2022-09-11T07:27:52.909Z,18.57
2022-09-11T07:30:19.880Z,18.43
2022-09-11T07:32:46.657Z,18.51
2022-09-11T07:35:21.661Z,18.80
2022-09-11T07:37:50.834Z,18.95
2022-09-11T07:40:18.290Z,18.86
2022-09-11T07:42:44.887Z,18.69
2022-09-11T07:45:11.731Z,18.59
2022-09-11T07:47:38.619Z,18.80
2022-09-11T07:50:06.148Z,19.10
2022-09-11T07:52:33.075Z,19.39
2022-09-11T07:55:01.393Z,19.52
2022-09-11T07:57:30.129Z,19.59
2022-09-11T07:59:56.721Z,19.59
2022-09-11T08:02:23.314Z,19.56
2022-09-11T08:04:51.688Z,19.47
2022-09-11T08:07:18.704Z,19.62
2022-09-11T08:09:45.280Z,19.74
2022-09-11T08:12:12.316Z,19.73
2022-09-11T08:14:38.973Z,19.67
2022-09-11T08:17:05.473Z,19.76
2022-09-11T08:19:32.977Z,19.71
2022-09-11T08:21:59.555Z,19.72
2022-09-11T08:24:27.397Z,19.88
2022-09-11T08:26:54.195Z,19.79
2022-09-11T08:29:20.740Z,19.68
2022-09-11T08:31:47.266Z,19.58
2022-09-11T08:34:14.035Z,19.46
2022-09-11T08:36:40.623Z,19.34
2022-09-11T08:39:08.993Z,19.45
2022-09-11T08:41:58.190Z,19.48
2022-09-11T08:44:38.526Z,19.73
2022-09-11T08:47:10.258Z,19.63
2022-09-11T08:49:42.994Z,19.40
2022-09-11T08:52:13.350Z,19.27
2022-09-11T08:54:42.667Z,19.31
2022-09-11T08:57:19.497Z,19.32
2022-09-11T09:00:12.305Z,19.48
2022-09-11T09:03:03.400Z,19.58
2022-09-11T09:05:35.519Z,19.58
2022-09-11T09:08:20.259Z,19.76
2022-09-11T09:10:53.217Z,20.01
2022-09-11T09:13:19.683Z,20.14
2022-09-11T09:16:12.648Z,20.28
2022-09-11T09:18:39.170Z,20.47
2022-09-11T09:21:20.676Z,20.52
2022-09-11T09:23:54.620Z,20.46
2022-09-11T09:26:24.252Z,20.40
2022-09-11T09:28:54.851Z,20.55
2022-09-11T09:31:24.091Z,20.54
2022-09-11T09:34:03.967Z,20.48
2022-09-11T09:36:37.694Z,20.41
2022-09-11T09:39:12.983Z,20.46
2022-09-11T09:42:08.422Z,20.52
2022-09-11T09:45:02.759Z,20.57
2022-09-11T09:47:29.771Z,20.73
2022-09-11T09:49:58.422Z,20.91
2022-09-11T09:52:34.261Z,21.02
2022-09-11T09:55:06.951Z,21.17
2022-09-11T09:57:35.921Z,21.27
2022-09-11T10:00:15.499Z,21.41
2022-09-11T10:02:49.341Z,21.66
2022-09-11T10:05:18.187Z,21.85
2022-09-11T10:07:53.883Z,21.97
2022-09-11T10:10:41.151Z,21.85
2022-09-11T10:13:25.077Z,21.69
2022-09-11T10:16:03.913Z,21.61
2022-09-11T10:18:33.089Z,21.72
2022-09-11T10:21:11.554Z,21.92
2022-09-11T10:23:51.582Z,21.99
2022-09-11T10:26:43.190Z,22.05
2022-09-11T10:29:21.322Z,21.98
2022-09-11T10:31:53.457Z,21.94
2022-09-11T10:34:22.428Z,21.93
2022-09-11T10:37:17.724Z,21.89
2022-09-11T10:39:47.293Z,21.78
2022-09-11T10:42:23.207Z,21.63
2022-09-11T10:44:51.534Z,21.59
2022-09-11T10:47:22.152Z,21.64
2022-09-11T10:49:49.357Z,21.67
2022-09-11T10:52:15.863Z,21.50
2022-09-11T10:55:07.506Z,21.34
2022-09-11T10:57:49.978Z,21.44
2022-09-11T11:00:16.445Z,21.54
2022-09-11T11:02:50.517Z,21.60
2022-09-11T11:05:29.598Z,21.61
2022-09-11T11:08:05.555Z,21.68
2022-09-11T11:10:51.245Z,21.74
2022-09-11T11:13:42.650Z,21.70
2022-09-11T11:16:47.542Z,21.67
2022-09-11T11:19:43.324Z,21.79
2022-09-11T11:23:16.445Z,21.79
2022-09-11T11:25:48.718Z,21.77
2022-09-11T11:28:53.771Z,21.80
2022-09-11T11:31:44.367Z,21.89
2022-09-11T11:34:51.323Z,21.97
2022-09-11T11:37:26.262Z,22.04
2022-09-11T11:40:24.883Z,22.18
2022-09-11T11:42:56.611Z,22.24
2022-09-11T11:45:33.146Z,22.29
2022-09-11T11:48:05.861Z,22.38
2022-09-11T11:50:45.833Z,22.37
2022-09-11T11:53:39.062Z,22.40
2022-09-11T11:56:28.867Z,22.42
2022-09-11T11:59:14.163Z,22.30
2022-09-11T12:01:49.199Z,22.23
2022-09-11T12:04:27.605Z,22.12
2022-09-11T12:06:54.192Z,22.10
2022-09-11T12:09:20.833Z,22.25
2022-09-11T12:11:51.595Z,22.42
2022-09-11T12:14:29.959Z,22.54
2022-09-11T12:16:57.051Z,22.66
2022-09-11T12:19:27.803Z,22.77
2022-09-11T12:21:54.459Z,22.86
2022-09-11T12:24:24.469Z,22.98
2022-09-11T12:27:28.796Z,23.10
2022-09-11T12:29:57.494Z,23.27
2022-09-11T12:32:29.092Z,23.34
2022-09-11T12:35:01.821Z,23.41
2022-09-11T12:37:37.816Z,23.59
2022-09-11T12:40:49.768Z,23.84
2022-09-11T12:43:26.358Z,23.83
2022-09-11T12:45:53.124Z,23.64
2022-09-11T12:48:23.600Z,23.43
2022-09-11T12:50:57.084Z,23.27
2022-09-11T12:53:31.539Z,23.21
2022-09-11T12:56:01.320Z,23.21
2022-09-11T12:58:44.327Z,23.05
2022-09-11T13:01:11.744Z,23.02
2022-09-11T13:03:46.710Z,23.06
2022-09-11T13:06:13.769Z,23.06
2022-09-11T13:08:54.152Z,23.05
2022-09-11T13:11:54.098Z,23.08
2022-09-11T13:14:29.566Z,23.00
2022-09-11T13:16:57.816Z,22.95
2022-09-11T13:19:32.324Z,22.84
2022-09-11T13:21:58.903Z,22.90
2022-09-11T13:24:32.413Z,22.92
2022-09-11T13:27:04.074Z,23.13
2022-09-11T13:29:33.361Z,23.42
2022-09-11T13:32:05.406Z,23.71
2022-09-11T13:34:36.000Z,24.09
2022-09-11T13:37:10.344Z,24.26
2022-09-11T13:39:42.971Z,24.27
2022-09-11T13:42:18.074Z,24.22
2022-09-11T13:44:50.620Z,24.21
2022-09-11T13:47:20.210Z,24.37
2022-09-11T13:49:48.165Z,24.54
2022-09-11T13:52:15.447Z,24.46
2022-09-11T13:54:47.922Z,24.51
2022-09-11T13:57:23.051Z,25.09
2022-09-11T13:59:54.155Z,25.63
2022-09-11T14:02:40.737Z,26.05
2022-09-11T14:05:07.540Z,26.48
2022-09-11T14:07:41.188Z,26.70
2022-09-11T14:10:18.356Z,26.96
2022-09-11T14:13:27.796Z,27.42
2022-09-11T14:16:10.370Z,27.77
2022-09-11T14:18:52.841Z,27.83
2022-09-11T14:21:46.941Z,28.22
2022-09-11T14:24:35.025Z,28.68
2022-09-11T14:27:04.374Z,29.27
2022-09-11T14:29:32.662Z,29.45
2022-09-11T14:32:31.306Z,29.21
2022-09-11T14:34:58.962Z,28.85
2022-09-11T14:37:28.057Z,28.74
2022-09-11T14:40:00.292Z,29.13
2022-09-11T14:42:29.808Z,29.54
2022-09-11T14:44:56.487Z,29.25
2022-09-11T14:47:25.701Z,29.15
2022-09-11T14:49:54.048Z,29.31
2022-09-11T14:52:22.989Z,29.45
2022-09-11T14:54:49.655Z,29.65
2022-09-11T14:57:32.430Z,29.66
2022-09-11T14:59:59.571Z,29.79
2022-09-11T15:02:28.409Z,30.22
2022-09-11T15:04:57.323Z,30.69
2022-09-11T15:07:25.086Z,30.69
2022-09-11T15:09:53.392Z,30.37
2022-09-11T15:12:20.927Z,30.35
2022-09-11T15:14:57.777Z,30.20
2022-09-11T15:17:28.356Z,29.75
2022-09-11T15:19:54.879Z,29.48
2022-09-11T15:22:21.651Z,29.36
2022-09-11T15:24:49.886Z,29.45
2022-09-11T15:27:19.151Z,29.80
2022-09-11T15:29:46.220Z,29.84
2022-09-11T15:32:14.430Z,29.95
2022-09-11T15:34:42.045Z,29.87
2022-09-11T15:37:08.767Z,29.76
2022-09-11T15:39:35.410Z,29.65
2022-09-11T15:42:02.232Z,29.76
2022-09-11T15:44:29.180Z,29.97
2022-09-11T15:46:58.514Z,30.01
2022-09-11T15:49:28.119Z,30.24
2022-09-11T15:51:55.724Z,30.46
2022-09-11T15:54:23.599Z,30.69
2022-09-11T15:56:51.168Z,30.70
2022-09-11T15:59:17.817Z,30.60
2022-09-11T16:01:45.187Z,30.63
2022-09-11T16:04:22.092Z,30.61
2022-09-11T16:06:49.630Z,30.38
2022-09-11T16:09:20.121Z,29.98
2022-09-11T16:11:50.727Z,29.77
2022-09-11T16:14:24.303Z,29.96
2022-09-11T16:16:51.994Z,30.29
2022-09-11T16:19:21.171Z,30.51
2022-09-11T16:21:48.562Z,30.53
2022-09-11T16:24:15.524Z,30.54
2022-09-11T16:26:44.159Z,30.22
2022-09-11T16:29:15.259Z,29.78
2022-09-11T16:31:42.644Z,28.93
2022-09-11T16:34:10.325Z,28.20
2022-09-11T16:36:40.451Z,27.62
2022-09-11T16:39:15.474Z,27.11
2022-09-11T16:41:42.887Z,26.60
2022-09-11T16:44:12.467Z,26.24
2022-09-11T16:46:40.718Z,25.81
2022-09-11T16:49:07.522Z,25.46
2022-09-11T16:51:34.275Z,25.12
2022-09-11T16:54:01.534Z,24.84
2022-09-11T16:56:28.312Z,24.57
2022-09-11T16:58:55.411Z,24.30
2022-09-11T17:01:24.477Z,24.05
2022-09-11T17:03:53.167Z,23.83
2022-09-11T17:06:20.906Z,23.65
2022-09-11T17:08:50.480Z,23.47
2022-09-11T17:11:19.507Z,23.30
2022-09-11T17:13:46.618Z,23.11
2022-09-11T17:16:19.375Z,22.93
2022-09-11T17:18:51.286Z,22.76
2022-09-11T17:21:17.750Z,22.56
2022-09-11T17:23:44.674Z,22.48
2022-09-11T17:26:14.196Z,22.35
2022-09-11T17:28:42.367Z,22.24
2022-09-11T17:31:14.485Z,22.12
2022-09-11T17:33:41.532Z,22.04
2022-09-11T17:36:10.382Z,21.91
2022-09-11T17:38:38.487Z,21.73
2022-09-11T17:41:07.539Z,21.49
2022-09-11T17:43:35.330Z,21.25
2022-09-11T17:46:13.850Z,21.01
2022-09-11T17:48:41.083Z,20.86
2022-09-11T17:51:20.219Z,20.67
2022-09-11T17:53:56.228Z,20.50
2022-09-11T17:56:26.017Z,20.35
2022-09-11T17:58:57.273Z,20.19
2022-09-11T18:01:25.649Z,20.05
2022-09-11T18:03:56.734Z,19.93
2022-09-11T18:06:26.334Z,19.81
2022-09-11T18:08:54.442Z,19.71
2022-09-11T18:11:21.027Z,19.62
2022-09-11T18:13:47.659Z,19.52
2022-09-11T18:16:14.277Z,19.43
2022-09-11T18:18:40.919Z,19.34
2022-09-11T18:21:09.659Z,19.25
2022-09-11T18:23:41.985Z,19.16
2022-09-11T18:26:10.353Z,19.07
2022-09-11T18:28:39.880Z,18.98
2022-09-11T18:31:07.002Z,18.89
2022-09-11T18:33:33.757Z,18.83
2022-09-11T18:36:10.402Z,18.73
2022-09-11T18:38:37.564Z,18.69
2022-09-11T18:41:04.567Z,18.61
2022-09-11T18:43:31.161Z,18.52
2022-09-11T18:46:02.070Z,18.42
2022-09-11T18:48:28.628Z,18.36
2022-09-11T18:50:55.197Z,18.31
2022-09-11T18:53:22.043Z,18.25
2022-09-11T18:55:48.599Z,18.18
2022-09-11T18:58:15.159Z,18.11
2022-09-11T19:00:41.799Z,18.07
2022-09-11T19:03:11.212Z,18.01
2022-09-11T19:05:37.824Z,17.96
2022-09-11T19:08:04.416Z,17.92
2022-09-11T19:10:31.003Z,17.88
2022-09-11T19:12:57.597Z,17.84
2022-09-11T19:15:25.421Z,17.81
2022-09-11T19:17:55.378Z,17.77
2022-09-11T19:20:22.111Z,17.74
2022-09-11T19:22:48.764Z,17.67
2022-09-11T19:25:16.064Z,17.58
2022-09-11T19:27:42.805Z,17.50
2022-09-11T19:30:09.802Z,17.45
2022-09-11T19:32:36.577Z,17.43
2022-09-11T19:35:04.182Z,17.43
2022-09-11T19:37:37.395Z,17.35
2022-09-11T19:40:05.167Z,17.32
2022-09-11T19:42:32.463Z,17.30
2022-09-11T19:45:00.317Z,17.26
2022-09-11T19:47:28.390Z,17.23
2022-09-11T19:49:55.365Z,17.20
2022-09-11T19:52:25.402Z,17.15
2022-09-11T19:54:53.864Z,17.10
2022-09-11T19:57:20.485Z,17.06
2022-09-11T19:59:47.165Z,16.98
2022-09-11T20:02:14.215Z,16.92
2022-09-11T20:04:40.967Z,16.86
2022-09-11T20:07:07.658Z,16.84
2022-09-11T20:09:34.523Z,16.81
2022-09-11T20:12:01.745Z,16.80
2022-09-11T20:14:29.593Z,16.77
2022-09-11T20:16:56.121Z,16.72
2022-09-11T20:19:24.874Z,16.68
2022-09-11T20:21:51.406Z,16.64
2022-09-11T20:24:18.044Z,16.60
2022-09-11T20:26:44.565Z,16.58
2022-09-11T20:29:15.958Z,16.55
2022-09-11T20:31:47.526Z,16.51
2022-09-11T20:34:15.931Z,16.47
2022-09-11T20:36:42.623Z,16.44
2022-09-11T20:39:13.002Z,16.39
2022-09-11T20:41:39.648Z,16.37
2022-09-11T20:44:06.212Z,16.34
2022-09-11T20:46:32.859Z,16.29
2022-09-11T20:49:00.907Z,16.23
2022-09-11T20:51:29.987Z,16.18
2022-09-11T20:53:56.700Z,16.14
2022-09-11T20:56:24.003Z,16.14
2022-09-11T20:58:51.631Z,16.11
2022-09-11T21:01:21.399Z,16.08
2022-09-11T21:03:54.143Z,16.03
2022-09-11T21:06:25.923Z,16.03
2022-09-11T21:08:57.920Z,16.00
2022-09-11T21:11:26.043Z,15.97
2022-09-11T21:13:53.051Z,15.93
2022-09-11T21:16:21.043Z,15.90
2022-09-11T21:18:52.800Z,15.87
2022-09-11T21:21:20.627Z,15.86
2022-09-11T21:23:47.634Z,15.86
2022-09-11T21:26:16.635Z,15.84
2022-09-11T21:28:43.619Z,15.83
2022-09-11T21:31:10.636Z,15.78
2022-09-11T21:33:38.262Z,15.74
2022-09-11T21:36:05.903Z,15.69
2022-09-11T21:38:32.778Z,15.67
2022-09-11T21:41:01.065Z,15.66
2022-09-11T21:43:28.062Z,15.65
2022-09-11T21:45:54.602Z,15.62
2022-09-11T21:48:21.186Z,15.57
2022-09-11T21:50:47.716Z,15.56
2022-09-11T21:53:14.544Z,15.54
2022-09-11T21:55:43.257Z,15.49
2022-09-11T21:58:15.481Z,15.47
2022-09-11T22:00:43.350Z,15.44
2022-09-11T22:03:12.618Z,15.42
2022-09-11T22:05:43.388Z,15.36
2022-09-11T22:08:12.003Z,15.32
2022-09-11T22:10:47.337Z,15.27
2022-09-11T22:13:14.423Z,15.28
2022-09-11T22:15:45.726Z,15.26
2022-09-11T22:18:12.970Z,15.24
2022-09-11T22:20:41.507Z,15.20
2022-09-11T22:23:13.348Z,15.15
2022-09-11T22:25:40.887Z,15.13
2022-09-11T22:28:07.977Z,15.11
2022-09-11T22:30:34.611Z,15.09
2022-09-11T22:33:01.735Z,15.08
2022-09-11T22:35:28.837Z,15.04
2022-09-11T22:37:55.708Z,15.04
2022-09-11T22:40:22.260Z,15.02
2022-09-11T22:42:49.904Z,15.00
2022-09-11T22:45:17.039Z,14.98
2022-09-11T22:47:43.658Z,14.97
2022-09-11T22:50:10.254Z,14.95
2022-09-11T22:52:37.446Z,14.94
2022-09-11T22:55:05.788Z,14.94
2022-09-11T22:57:34.957Z,14.89
2022-09-11T23:00:02.472Z,14.87
2022-09-11T23:02:28.974Z,14.83
2022-09-11T23:05:14.014Z,14.82
2022-09-11T23:07:40.858Z,14.81
2022-09-11T23:10:09.803Z,14.79
2022-09-11T23:12:37.400Z,14.79
2022-09-11T23:15:04.485Z,14.79
2022-09-11T23:17:31.059Z,14.76
2022-09-11T23:19:57.579Z,14.75
2022-09-11T23:22:25.822Z,14.76
2022-09-11T23:24:52.398Z,14.75
2022-09-11T23:27:19.119Z,14.72
2022-09-11T23:29:45.639Z,14.72
2022-09-11T23:32:12.167Z,14.70
2022-09-11T23:34:38.665Z,14.68
2022-09-11T23:37:05.214Z,14.65
2022-09-11T23:39:31.873Z,14.63
2022-09-11T23:41:58.377Z,14.63
2022-09-11T23:44:24.962Z,14.59
2022-09-11T23:46:51.462Z,14.60
2022-09-11T23:49:18.006Z,14.58
2022-09-11T23:51:44.623Z,14.55
2022-09-11T23:54:11.113Z,14.51
2022-09-11T23:56:37.611Z,14.49
2022-09-11T23:59:04.126Z,14.46
